createdAt,value
2023-05-18T00:00:02.358Z,102796.22
2023-05-18T00:02:31.459Z,102789.44
2023-05-18T00:05:02.012Z,102791.75
2023-05-18T00:07:30.114Z,102793.00
2023-05-18T00:09:56.747Z,102788.59
2023-05-18T00:12:23.362Z,102790.72
2023-05-18T00:14:49.940Z,102787.53
2023-05-18T00:17:16.689Z,102788.38
2023-05-18T00:19:46.591Z,102794.91
2023-05-18T00:22:18.062Z,102788.13
2023-05-18T00:24:46.442Z,102796.53
2023-05-18T00:27:13.169Z,102791.91
2023-05-18T00:29:39.938Z,102795.63
2023-05-18T00:32:06.944Z,102793.97
2023-05-18T00:34:33.648Z,102797.94
2023-05-18T00:37:00.415Z,102796.28
2023-05-18T00:39:26.974Z,102795.81
2023-05-18T00:41:53.540Z,102799.22
2023-05-18T00:44:20.402Z,102806.53
2023-05-18T00:46:46.966Z,102797.66
2023-05-18T00:49:14.030Z,102793.03
2023-05-18T00:51:41.140Z,102796.78
2023-05-18T00:54:08.310Z,102792.16
2023-05-18T00:56:37.017Z,102789.59
2023-05-18T00:59:03.769Z,102790.84
2023-05-18T01:01:36.908Z,102802.84
2023-05-18T01:04:04.405Z,102796.31
2023-05-18T01:06:35.637Z,102798.78
2023-05-18T01:09:04.248Z,102797.31
2023-05-18T01:11:43.920Z,102800.22
2023-05-18T01:14:49.734Z,102795.19
2023-05-18T01:17:22.027Z,102795.97
2023-05-18T01:19:51.465Z,102804.56
2023-05-18T01:22:48.776Z,102798.94
2023-05-18T01:25:40.861Z,102797.38
2023-05-18T01:28:17.145Z,102804.97
2023-05-18T01:30:44.648Z,102801.59
2023-05-18T01:33:13.032Z,102802.75
2023-05-18T01:35:48.196Z,102802.31
2023-05-18T01:38:21.048Z,102798.34
2023-05-18T01:41:15.668Z,102806.56
2023-05-18T01:43:48.542Z,102801.47
2023-05-18T01:46:22.198Z,102799.53
2023-05-18T01:48:55.246Z,102801.34
2023-05-18T01:51:29.409Z,102796.34
2023-05-18T01:54:08.083Z,102806.84
2023-05-18T01:56:38.922Z,102809.09
2023-05-18T01:59:05.686Z,102805.88
2023-05-18T02:01:32.548Z,102800.34
2023-05-18T02:03:59.254Z,102793.72
2023-05-18T02:06:25.974Z,102794.94
2023-05-18T02:08:52.634Z,102798.09
2023-05-18T02:11:19.306Z,102794.13
2023-05-18T02:13:46.073Z,102798.66
2023-05-18T02:16:13.688Z,102793.09
2023-05-18T02:18:40.442Z,102793.72
2023-05-18T02:21:09.952Z,102790.03
2023-05-18T02:23:36.578Z,102790.09
2023-05-18T02:26:03.442Z,102780.50
2023-05-18T02:28:30.410Z,102783.56
2023-05-18T02:31:11.850Z,102781.72
2023-05-18T02:33:41.798Z,102783.19
2023-05-18T02:36:12.946Z,102779.34
2023-05-18T02:38:43.849Z,102782.88
2023-05-18T02:41:12.243Z,102785.84
2023-05-18T02:43:39.025Z,102776.06
2023-05-18T02:46:07.422Z,102768.78
2023-05-18T02:48:34.454Z,102770.06
2023-05-18T02:51:01.083Z,102774.81
2023-05-18T02:53:27.833Z,102770.97
2023-05-18T02:56:03.326Z,102776.75
2023-05-18T02:58:40.366Z,102771.81
2023-05-18T03:01:17.297Z,102774.13
2023-05-18T03:03:48.598Z,102777.00
2023-05-18T03:06:16.040Z,102779.44
2023-05-18T03:08:43.533Z,102782.44
2023-05-18T03:11:12.044Z,102777.53
2023-05-18T03:13:38.766Z,102780.84
2023-05-18T03:16:05.830Z,102782.44
2023-05-18T03:18:32.562Z,102775.00
2023-05-18T03:21:02.008Z,102772.34
2023-05-18T03:23:30.058Z,102779.56
2023-05-18T03:25:56.729Z,102781.81
2023-05-18T03:28:26.795Z,102777.31
2023-05-18T03:30:53.331Z,102779.13
2023-05-18T03:33:19.921Z,102784.75
2023-05-18T03:35:48.614Z,102782.44
2023-05-18T03:38:15.885Z,102788.66
2023-05-18T03:40:47.256Z,102776.81
2023-05-18T03:43:14.300Z,102773.81
2023-05-18T03:45:41.842Z,102777.00
2023-05-18T03:48:08.469Z,102782.56
2023-05-18T03:50:35.963Z,102782.69
2023-05-18T03:53:04.089Z,102780.16
2023-05-18T03:55:30.939Z,102781.13
2023-05-18T03:57:59.091Z,102784.03
2023-05-18T04:00:25.711Z,102784.03
2023-05-18T04:02:52.428Z,102784.16
2023-05-18T04:05:24.345Z,102787.97
2023-05-18T04:07:51.019Z,102797.66
2023-05-18T04:10:19.529Z,102799.53
2023-05-18T04:12:46.268Z,102798.03
2023-05-18T04:15:14.584Z,102797.28
2023-05-18T04:17:45.356Z,102797.34
2023-05-18T04:20:14.272Z,102807.38
2023-05-18T04:22:48.761Z,102803.88
2023-05-18T04:25:17.462Z,102805.00
2023-05-18T04:27:49.126Z,102805.94
2023-05-18T04:30:18.809Z,102804.25
2023-05-18T04:32:45.495Z,102802.81
2023-05-18T04:35:12.167Z,102807.50
2023-05-18T04:37:43.060Z,102809.59
2023-05-18T04:40:14.108Z,102808.16
2023-05-18T04:42:45.857Z,102808.69
2023-05-18T04:45:17.566Z,102816.78
2023-05-18T04:47:46.748Z,102806.19
2023-05-18T04:50:17.599Z,102814.84
2023-05-18T04:52:48.462Z,102813.16
2023-05-18T04:55:23.054Z,102817.38
2023-05-18T04:57:50.984Z,102816.75
2023-05-18T05:00:18.174Z,102810.22
2023-05-18T05:02:45.076Z,102817.38
2023-05-18T05:05:12.335Z,102829.81
2023-05-18T05:07:39.060Z,102820.13
2023-05-18T05:10:06.505Z,102825.59
2023-05-18T05:12:33.115Z,102827.47
2023-05-18T05:14:59.770Z,102824.16
2023-05-18T05:17:26.609Z,102822.06
2023-05-18T05:19:53.244Z,102821.41
2023-05-18T05:22:20.662Z,102821.50
2023-05-18T05:24:47.422Z,102826.97
2023-05-18T05:27:14.315Z,102830.41
2023-05-18T05:29:42.959Z,102836.72
2023-05-18T05:32:09.601Z,102833.53
2023-05-18T05:34:37.560Z,102823.09
2023-05-18T05:37:05.195Z,102836.31
2023-05-18T05:39:31.933Z,102829.75
2023-05-18T05:41:59.106Z,102834.25
2023-05-18T05:44:25.874Z,102826.91
2023-05-18T05:46:52.448Z,102837.00
2023-05-18T05:49:20.049Z,102826.69
2023-05-18T05:51:46.658Z,102825.72
2023-05-18T05:54:13.199Z,102829.97
2023-05-18T05:56:39.858Z,102830.00
2023-05-18T05:59:06.537Z,102831.91
2023-05-18T06:01:34.695Z,102827.53
2023-05-18T06:04:02.552Z,102823.28
2023-05-18T06:06:29.185Z,102814.72
2023-05-18T06:08:55.798Z,102815.16
2023-05-18T06:11:22.658Z,102819.94
2023-05-18T06:13:49.341Z,102823.78
2023-05-18T06:16:15.994Z,102820.63
2023-05-18T06:18:43.062Z,102833.09
2023-05-18T06:21:09.700Z,102832.06
2023-05-18T06:23:36.429Z,102840.72
2023-05-18T06:26:03.104Z,102828.50
2023-05-18T06:28:49.935Z,102831.06
2023-05-18T06:31:25.947Z,102834.78
2023-05-18T06:34:01.433Z,102830.66
2023-05-18T06:36:28.081Z,102841.00
2023-05-18T06:38:54.867Z,102835.13
2023-05-18T06:41:22.390Z,102841.22
2023-05-18T06:43:49.106Z,102847.41
2023-05-18T06:46:24.568Z,102841.50
2023-05-18T06:48:55.082Z,102836.84
2023-05-18T06:51:21.731Z,102832.66
2023-05-18T06:53:48.328Z,102835.09
2023-05-18T06:56:14.940Z,102834.88
2023-05-18T06:58:43.850Z,102841.00
2023-05-18T07:01:11.055Z,102844.38
2023-05-18T07:03:37.695Z,102848.38
2023-05-18T07:06:05.024Z,102846.50
2023-05-18T07:08:32.023Z,102846.50
2023-05-18T07:10:59.356Z,102846.50
2023-05-18T07:13:25.927Z,102860.47
2023-05-18T07:15:52.566Z,102859.22
2023-05-18T07:18:19.139Z,102848.69
2023-05-18T07:20:45.799Z,102855.03
2023-05-18T07:23:13.054Z,102858.47
2023-05-18T07:25:39.697Z,102857.88
2023-05-18T07:28:06.300Z,102859.38
2023-05-18T07:30:32.930Z,102867.66
2023-05-18T07:32:59.562Z,102851.16
2023-05-18T07:35:26.892Z,102868.91
2023-05-18T07:37:55.261Z,102873.59
2023-05-18T07:40:21.839Z,102865.69
2023-05-18T07:42:48.425Z,102866.56
2023-05-18T07:45:15.009Z,102869.97
2023-05-18T07:47:41.606Z,102869.13
2023-05-18T07:50:08.640Z,102879.28
2023-05-18T07:52:35.222Z,102876.13
2023-05-18T07:55:01.825Z,102883.09
2023-05-18T07:57:29.844Z,102878.69
2023-05-18T07:59:56.597Z,102880.59
2023-05-18T08:02:23.736Z,102889.88
2023-05-18T08:04:50.548Z,102883.75
2023-05-18T08:07:18.401Z,102890.75
2023-05-18T08:09:44.972Z,102888.44
2023-05-18T08:12:11.569Z,102888.03
2023-05-18T08:14:38.089Z,102886.56
2023-05-18T08:17:05.110Z,102887.59
2023-05-18T08:19:31.910Z,102894.34
2023-05-18T08:21:58.660Z,102893.75
2023-05-18T08:24:25.301Z,102882.34
2023-05-18T08:26:52.580Z,102881.72
2023-05-18T08:29:19.415Z,102879.41
2023-05-18T08:31:49.087Z,102882.81
2023-05-18T08:34:16.462Z,102876.25
2023-05-18T08:36:45.498Z,102878.59
2023-05-18T08:39:12.723Z,102871.84
2023-05-18T08:41:48.234Z,102876.91
2023-05-18T08:44:22.720Z,102868.03
2023-05-18T08:46:51.245Z,102866.13
2023-05-18T08:49:20.358Z,102868.03
2023-05-18T08:51:54.357Z,102866.31
2023-05-18T08:54:22.785Z,102877.78
2023-05-18T08:56:50.728Z,102859.81
2023-05-18T08:59:23.654Z,102857.88
2023-05-18T09:01:51.229Z,102858.91
2023-05-18T09:04:19.149Z,102860.00
2023-05-18T09:06:48.367Z,102860.66
2023-05-18T09:09:16.165Z,102854.28
2023-05-18T09:11:43.203Z,102854.94
2023-05-18T09:14:10.424Z,102849.88
2023-05-18T09:16:37.200Z,102853.91
2023-05-18T09:19:04.053Z,102848.19
2023-05-18T09:21:32.640Z,102840.78
2023-05-18T09:24:01.048Z,102843.53
2023-05-18T09:26:27.646Z,102841.63
2023-05-18T09:28:54.606Z,102848.63
2023-05-18T09:31:24.618Z,102841.84
2023-05-18T09:33:52.165Z,102834.22
2023-05-18T09:36:25.762Z,102843.91
2023-05-18T09:38:53.188Z,102844.72
2023-05-18T09:41:19.855Z,102831.59
2023-05-18T09:43:49.055Z,102828.41
2023-05-18T09:46:15.752Z,102828.59
2023-05-18T09:48:46.085Z,102821.06
2023-05-18T09:51:16.335Z,102828.69
2023-05-18T09:53:58.510Z,102835.16
2023-05-18T09:56:25.431Z,102829.56
2023-05-18T09:58:52.228Z,102833.31
2023-05-18T10:01:18.949Z,102824.56
2023-05-18T10:03:48.329Z,102823.69
2023-05-18T10:06:17.265Z,102812.50
2023-05-18T10:08:45.446Z,102815.22
2023-05-18T10:11:12.196Z,102813.47
2023-05-18T10:13:38.901Z,102816.81
2023-05-18T10:16:08.100Z,102823.38
2023-05-18T10:18:36.628Z,102810.47
2023-05-18T10:21:05.198Z,102811.88
2023-05-18T10:23:33.756Z,102804.50
2023-05-18T10:26:01.266Z,102803.16
2023-05-18T10:28:33.266Z,102808.47
2023-05-18T10:31:00.564Z,102805.66
2023-05-18T10:33:30.017Z,102807.97
2023-05-18T10:35:57.796Z,102803.28
2023-05-18T10:38:28.643Z,102805.81
2023-05-18T10:40:56.975Z,102805.81
2023-05-18T10:43:28.138Z,102806.22
2023-05-18T10:46:00.685Z,102801.94
2023-05-18T10:48:29.573Z,102800.28
2023-05-18T10:50:58.100Z,102800.09
2023-05-18T10:53:27.107Z,102797.81
2023-05-18T10:55:54.324Z,102796.53
2023-05-18T10:58:25.000Z,102789.13
2023-05-18T11:00:55.148Z,102785.53
2023-05-18T11:03:22.495Z,102782.53
2023-05-18T11:05:52.079Z,102785.63
2023-05-18T11:08:28.905Z,102788.53
2023-05-18T11:11:07.464Z,102786.34
2023-05-18T11:13:36.083Z,102780.22
2023-05-18T11:16:07.375Z,102777.84
2023-05-18T11:18:51.254Z,102783.50
2023-05-18T11:21:24.807Z,102779.59
2023-05-18T11:24:13.630Z,102769.53
2023-05-18T11:26:41.065Z,102768.47
2023-05-18T11:29:46.578Z,102768.94
2023-05-18T11:32:30.494Z,102770.25
2023-05-18T11:34:58.516Z,102766.19
2023-05-18T11:37:39.957Z,102773.06
2023-05-18T11:40:11.450Z,102762.91
2023-05-18T11:42:38.498Z,102764.94
2023-05-18T11:45:09.706Z,102757.88
2023-05-18T11:47:37.081Z,102762.59
2023-05-18T11:50:07.715Z,102753.47
2023-05-18T11:52:45.905Z,102759.06
2023-05-18T11:55:15.058Z,102763.13
2023-05-18T11:57:45.351Z,102750.28
2023-05-18T12:00:13.017Z,102745.03
2023-05-18T12:02:43.842Z,102752.72
2023-05-18T12:05:11.598Z,102738.31
2023-05-18T12:07:39.278Z,102739.25
2023-05-18T12:10:17.011Z,102746.72
2023-05-18T12:12:47.501Z,102754.59
2023-05-18T12:15:15.697Z,102741.75
2023-05-18T12:17:48.420Z,102740.53
2023-05-18T12:20:19.231Z,102740.75
2023-05-18T12:22:50.082Z,102747.06
2023-05-18T12:25:16.582Z,102746.03
2023-05-18T12:27:44.405Z,102741.03
2023-05-18T12:30:12.428Z,102745.09
2023-05-18T12:32:39.657Z,102740.94
2023-05-18T12:35:08.754Z,102746.25
2023-05-18T12:37:46.047Z,102740.13
2023-05-18T12:40:15.152Z,102746.25
2023-05-18T12:42:59.686Z,102736.06
2023-05-18T12:45:28.125Z,102741.19
2023-05-18T12:47:56.243Z,102747.25
2023-05-18T12:50:28.363Z,102739.09
2023-05-18T12:52:56.661Z,102742.34
2023-05-18T12:55:28.167Z,102742.44
2023-05-18T12:58:02.939Z,102743.34
2023-05-18T13:00:37.593Z,102745.13
2023-05-18T13:03:11.848Z,102735.75
2023-05-18T13:05:42.553Z,102737.44
2023-05-18T13:08:09.519Z,102734.09
2023-05-18T13:10:36.161Z,102731.28
2023-05-18T13:13:03.879Z,102722.56
2023-05-18T13:15:35.896Z,102719.13
2023-05-18T13:18:10.535Z,102717.94
2023-05-18T13:20:51.030Z,102711.31
2023-05-18T13:23:22.947Z,102717.97
2023-05-18T13:25:50.024Z,102712.94
2023-05-18T13:28:21.021Z,102700.56
2023-05-18T13:30:49.121Z,102698.16
2023-05-18T13:33:19.614Z,102704.88
2023-05-18T13:35:46.737Z,102698.88
2023-05-18T13:38:14.293Z,102699.34
2023-05-18T13:40:41.846Z,102696.78
2023-05-18T13:43:10.935Z,102696.63
2023-05-18T13:45:39.778Z,102696.50
2023-05-18T13:48:09.625Z,102689.84
2023-05-18T13:50:37.244Z,102693.34
2023-05-18T13:53:04.088Z,102694.78
2023-05-18T13:55:31.021Z,102682.53
2023-05-18T13:57:57.803Z,102685.31
2023-05-18T14:00:24.616Z,102667.31
2023-05-18T14:02:51.382Z,102674.94
2023-05-18T14:05:18.099Z,102665.78
2023-05-18T14:07:44.840Z,102667.25
2023-05-18T14:10:12.795Z,102668.44
2023-05-18T14:12:42.201Z,102673.97
2023-05-18T14:15:09.446Z,102662.41
2023-05-18T14:17:36.217Z,102654.81
2023-05-18T14:20:04.873Z,102668.84
2023-05-18T14:22:31.492Z,102656.63
2023-05-18T14:24:57.997Z,102650.28
2023-05-18T14:27:24.581Z,102646.75
2023-05-18T14:29:51.376Z,102644.56
2023-05-18T14:32:20.634Z,102651.00
2023-05-18T14:34:48.105Z,102643.13
2023-05-18T14:37:14.615Z,102642.97
2023-05-18T14:39:41.167Z,102638.94
2023-05-18T14:42:07.900Z,102637.81
2023-05-18T14:44:34.488Z,102640.00
2023-05-18T14:47:01.523Z,102634.09
2023-05-18T14:49:28.103Z,102634.41
2023-05-18T14:51:54.726Z,102637.06
2023-05-18T14:54:22.341Z,102641.19
2023-05-18T14:56:48.980Z,102643.66
2023-05-18T14:59:15.560Z,102643.19
2023-05-18T15:01:42.157Z,102631.31
2023-05-18T15:04:08.788Z,102641.06
2023-05-18T15:06:37.374Z,102639.97
2023-05-18T15:09:06.108Z,102640.28
2023-05-18T15:11:32.649Z,102638.56
2023-05-18T15:13:59.173Z,102639.75
2023-05-18T15:16:25.871Z,102638.75
2023-05-18T15:18:52.498Z,102630.69
2023-05-18T15:21:19.035Z,102625.41
2023-05-18T15:23:46.094Z,102630.03
2023-05-18T15:26:12.984Z,102637.06
2023-05-18T15:28:40.916Z,102631.00
2023-05-18T15:31:09.118Z,102631.41
2023-05-18T15:33:36.816Z,102639.03
2023-05-18T15:36:03.672Z,102638.03
2023-05-18T15:38:30.413Z,102635.31
2023-05-18T15:40:57.020Z,102626.47
2023-05-18T15:43:25.998Z,102636.88
2023-05-18T15:45:52.652Z,102628.63
2023-05-18T15:48:19.289Z,102621.84
2023-05-18T15:50:46.282Z,102614.63
2023-05-18T15:53:12.954Z,102609.69
2023-05-18T15:55:39.551Z,102611.31
2023-05-18T15:58:06.102Z,102614.44
2023-05-18T16:00:33.194Z,102603.94
2023-05-18T16:02:59.976Z,102609.03
2023-05-18T16:05:26.708Z,102605.94
2023-05-18T16:07:53.222Z,102596.34
2023-05-18T16:10:20.075Z,102609.66
2023-05-18T16:12:46.656Z,102605.78
2023-05-18T16:15:13.245Z,102593.72
2023-05-18T16:17:39.831Z,102599.34
2023-05-18T16:20:06.927Z,102603.03
2023-05-18T16:22:33.609Z,102611.66
2023-05-18T16:25:00.210Z,102597.72
2023-05-18T16:27:26.779Z,102592.50
2023-05-18T16:29:53.352Z,102594.50
2023-05-18T16:32:20.065Z,102593.97
2023-05-18T16:34:46.603Z,102596.25
2023-05-18T16:37:13.228Z,102590.97
2023-05-18T16:39:39.773Z,102595.69
2023-05-18T16:42:07.590Z,102595.78
2023-05-18T16:44:35.340Z,102600.78
2023-05-18T16:47:01.905Z,102598.06
2023-05-18T16:49:28.490Z,102597.00
2023-05-18T16:51:55.037Z,102598.94
2023-05-18T16:54:21.614Z,102598.16
2023-05-18T16:56:48.225Z,102593.38
2023-05-18T16:59:15.358Z,102593.63
2023-05-18T17:01:42.033Z,102596.16
2023-05-18T17:04:08.892Z,102588.16
2023-05-18T17:06:36.095Z,102589.53
2023-05-18T17:09:05.568Z,102585.66
2023-05-18T17:11:33.236Z,102590.94
2023-05-18T17:14:01.410Z,102584.53
2023-05-18T17:16:28.573Z,102588.16
2023-05-18T17:18:55.907Z,102580.63
2023-05-18T17:21:23.816Z,102581.13
2023-05-18T17:23:50.613Z,102581.44
2023-05-18T17:26:17.317Z,102581.97
2023-05-18T17:28:43.870Z,102582.28
2023-05-18T17:31:10.479Z,102585.00
2023-05-18T17:33:37.067Z,102592.78
2023-05-18T17:36:03.907Z,102581.09
2023-05-18T17:38:30.723Z,102587.50
2023-05-18T17:40:57.316Z,102590.75
2023-05-18T17:43:23.838Z,102584.66
2023-05-18T17:45:50.590Z,102584.66
2023-05-18T17:48:17.169Z,102588.84
2023-05-18T17:50:45.375Z,102586.94
2023-05-18T17:53:12.320Z,102584.16
2023-05-18T17:55:39.419Z,102582.47
2023-05-18T17:58:05.958Z,102576.41
2023-05-18T18:00:32.832Z,102581.47
2023-05-18T18:02:59.689Z,102580.59
2023-05-18T18:05:26.396Z,102582.47
2023-05-18T18:07:54.045Z,102585.47
2023-05-18T18:10:20.947Z,102590.03
2023-05-18T18:12:47.503Z,102592.19
2023-05-18T18:15:14.098Z,102589.81
2023-05-18T18:17:40.736Z,102589.97
2023-05-18T18:20:07.948Z,102588.13
2023-05-18T18:22:35.830Z,102589.44
2023-05-18T18:25:02.702Z,102584.91
2023-05-18T18:27:29.316Z,102588.13
2023-05-18T18:29:56.339Z,102584.19
2023-05-18T18:32:23.074Z,102581.03
2023-05-18T18:34:49.705Z,102588.97
2023-05-18T18:37:16.994Z,102588.31
2023-05-18T18:39:43.683Z,102597.69
2023-05-18T18:42:10.333Z,102585.69
2023-05-18T18:44:36.946Z,102593.75
2023-05-18T18:47:03.613Z,102590.97
2023-05-18T18:49:30.309Z,102599.84
2023-05-18T18:51:58.782Z,102601.66
2023-05-18T18:54:26.268Z,102604.72
2023-05-18T18:56:53.097Z,102607.00
2023-05-18T18:59:19.665Z,102607.97
2023-05-18T19:01:46.655Z,102603.16
2023-05-18T19:04:13.357Z,102606.41
2023-05-18T19:06:39.922Z,102605.38
2023-05-18T19:09:06.497Z,102610.09
2023-05-18T19:11:33.097Z,102611.16
2023-05-18T19:13:59.687Z,102607.78
2023-05-18T19:16:26.471Z,102615.53
2023-05-18T19:18:53.135Z,102612.47
2023-05-18T19:21:19.681Z,102607.97
2023-05-18T19:23:46.381Z,102608.44
2023-05-18T19:26:13.018Z,102607.72
2023-05-18T19:28:39.619Z,102623.00
2023-05-18T19:31:10.255Z,102612.34
2023-05-18T19:33:36.988Z,102613.34
2023-05-18T19:36:03.657Z,102618.72
2023-05-18T19:38:30.166Z,102617.22
2023-05-18T19:40:56.739Z,102623.06
2023-05-18T19:43:23.277Z,102619.22
2023-05-18T19:45:50.191Z,102630.56
2023-05-18T19:48:17.963Z,102618.81
2023-05-18T19:50:44.560Z,102619.97
2023-05-18T19:53:11.139Z,102624.75
2023-05-18T19:55:37.697Z,102627.44
2023-05-18T19:58:04.432Z,102627.78
2023-05-18T20:00:32.846Z,102624.97
2023-05-18T20:03:02.340Z,102621.91
2023-05-18T20:05:29.625Z,102630.06
2023-05-18T20:07:58.016Z,102633.72
2023-05-18T20:10:24.826Z,102630.50
2023-05-18T20:12:51.392Z,102629.31
2023-05-18T20:15:18.805Z,102631.81
2023-05-18T20:17:45.686Z,102621.59
2023-05-18T20:20:12.278Z,102624.84
2023-05-18T20:22:38.859Z,102620.56
2023-05-18T20:25:06.216Z,102629.69
2023-05-18T20:27:32.919Z,102635.84
2023-05-18T20:29:59.580Z,102637.19
2023-05-18T20:32:26.183Z,102643.78
2023-05-18T20:34:52.718Z,102637.41
2023-05-18T20:37:19.550Z,102645.63
2023-05-18T20:39:50.637Z,102650.53
2023-05-18T20:42:22.034Z,102655.50
2023-05-18T20:44:51.383Z,102651.19
2023-05-18T20:47:20.287Z,102657.44
2023-05-18T20:49:47.823Z,102655.03
2023-05-18T20:52:14.768Z,102659.72
2023-05-18T20:54:41.688Z,102655.66
2023-05-18T20:57:08.547Z,102648.66
2023-05-18T20:59:35.120Z,102651.78
2023-05-18T21:02:01.920Z,102656.13
2023-05-18T21:04:28.684Z,102652.41
2023-05-18T21:06:55.530Z,102659.34
2023-05-18T21:09:22.075Z,102656.09
2023-05-18T21:11:49.106Z,102659.22
2023-05-18T21:14:16.351Z,102656.72
2023-05-18T21:16:43.135Z,102656.94
2023-05-18T21:19:09.889Z,102654.66
2023-05-18T21:21:36.492Z,102653.22
2023-05-18T21:24:03.132Z,102649.72
2023-05-18T21:26:29.765Z,102656.44
2023-05-18T21:28:56.378Z,102658.97
2023-05-18T21:31:23.023Z,102661.16
2023-05-18T21:33:51.070Z,102659.94
2023-05-18T21:36:25.549Z,102657.28
2023-05-18T21:38:52.103Z,102649.97
2023-05-18T21:41:18.644Z,102658.34
2023-05-18T21:43:45.277Z,102649.81
2023-05-18T21:46:11.836Z,102660.50
2023-05-18T21:48:38.593Z,102661.91
2023-05-18T21:51:05.346Z,102662.38
2023-05-18T21:53:31.900Z,102665.47
2023-05-18T21:55:58.410Z,102667.31
2023-05-18T21:58:25.521Z,102671.59
2023-05-18T22:00:52.179Z,102663.34
2023-05-18T22:03:18.796Z,102661.63
2023-05-18T22:05:45.308Z,102658.88
2023-05-18T22:08:11.918Z,102666.56
2023-05-18T22:10:38.567Z,102678.03
2023-05-18T22:13:05.210Z,102677.59
2023-05-18T22:15:32.755Z,102672.50
2023-05-18T22:18:01.916Z,102677.41
2023-05-18T22:20:29.557Z,102669.84
2023-05-18T22:22:56.256Z,102675.59
2023-05-18T22:25:24.845Z,102676.69
2023-05-18T22:27:52.169Z,102673.13
2023-05-18T22:30:20.787Z,102675.25
2023-05-18T22:32:47.509Z,102673.19
2023-05-18T22:35:14.201Z,102673.66
2023-05-18T22:37:40.786Z,102678.66
2023-05-18T22:40:08.288Z,102679.50
2023-05-18T22:42:34.864Z,102675.19
2023-05-18T22:45:02.253Z,102672.75
2023-05-18T22:47:30.073Z,102662.22
2023-05-18T22:49:56.680Z,102673.69
2023-05-18T22:52:23.196Z,102668.41
2023-05-18T22:54:49.779Z,102667.44
2023-05-18T22:57:16.349Z,102661.38
2023-05-18T22:59:42.872Z,102666.28
2023-05-18T23:02:09.560Z,102660.47
2023-05-18T23:04:36.248Z,102665.47
2023-05-18T23:07:03.960Z,102664.44
2023-05-18T23:09:30.870Z,102657.25
2023-05-18T23:11:59.542Z,102653.66
2023-05-18T23:14:28.058Z,102648.44
2023-05-18T23:16:58.283Z,102654.19
2023-05-18T23:19:26.620Z,102655.34
2023-05-18T23:21:53.601Z,102649.66
2023-05-18T23:24:20.846Z,102652.88
2023-05-18T23:26:47.717Z,102655.84
2023-05-18T23:29:14.351Z,102651.50
2023-05-18T23:31:40.962Z,102646.56
2023-05-18T23:34:07.823Z,102649.19
2023-05-18T23:36:37.208Z,102650.47
2023-05-18T23:39:03.968Z,102651.16
2023-05-18T23:41:31.885Z,102653.00
2023-05-18T23:43:58.848Z,102647.84
2023-05-18T23:46:26.044Z,102648.09
2023-05-18T23:48:53.058Z,102643.88
2023-05-18T23:51:21.057Z,102643.25
2023-05-18T23:53:49.206Z,102642.66
2023-05-18T23:56:16.115Z,102644.75
2023-05-18T23:58:44.604Z,102652.63
